Historyczne dane pomiarowe

Dodano dane terminowe – wersja testowa.

Dane z okresu 1951-2019

Wersja bazy: 1.34 [2019-03-16, lista zmian], aktualizacja planowana na 2019-04-15

Dane meteo z obszaru Polski uzyskane na podstawie danych udostępnionych przez Instytut Meteorologii i Gospodarki Wodnej – Państwowy Instytut Badawczy.

 

Wybierz Datę:    

       

TemperaturaWilgotnośćWiatrCiśnienieOpadyŚniegCzas trwania zjawisk
 Stacja t tx tn tng RH VA  wxwx mslp ppp RRR   cm mm wxwxwxwxwxwxwx
1987-08-14 12.5 16.1 6.5 5.2-- 8.0 1.3---- 0.8------------
1987-08-13 13.3 20.8 3.5 2.3-- 1.7 1.3---- 0.0------------
1987-08-12 11.4 19.2 5.3 4.2-- 1.7 2.0---- 0.0------------
1987-08-11 11.8 16.4 9.5 9.2-- 5.0 2.7---- 2.7------------
1987-08-10 13.6 19.8 12.0 12.0-- 8.0 1.3---- 3.7------------
1987-08-09 16.7 24.1 9.1 2.5-- 4.7 0.7---- 8.7------------
1987-08-08 13.5 21.7 4.3 3.5-- 2.7 3.0---- 0.0------------
1987-08-07 12.4 19.2 5.8 5.0-- 2.3 2.3---- 0.0------------
1987-08-06 11.5 14.5 8.2 8.0-- 5.7 4.0---- 0.0------------
1987-08-05 12.0 17.3 7.0 6.2-- 3.3 4.7---- 0.0------------
1987-08-04 13.1 17.5 10.5 9.6-- 4.0 2.0---- 2.7------------
1987-08-03 13.0 18.8 7.6 6.6-- 5.3 2.7---- 1.9------------
1987-08-02 13.2 18.2 10.0 9.5-- 5.0 3.0---- 0.6------------
1987-08-01 15.1 17.4 13.5 13.2-- 8.0 4.0---- 7.4------------
1987-07-31 15.6 20.1 12.7 14.0-- 7.0 3.0---- 3.0------------
1987-07-30 17.3 24.5 10.5 10.0-- 5.7 0.7---- 0.4------------
1987-07-29 14.4 18.9 9.5 9.0-- 6.0 2.3---- 0.0------------
1987-07-28 14.1 19.6 11.5 11.3-- 6.0 3.7---- 0.0------------
1987-07-27 12.2 17.6 7.6 7.0-- 7.3 4.0---- 1.6------------
1987-07-26 13.1 18.4 9.5 9.0-- 3.0 2.0---- 0.0------------
1987-07-25 15.8 19.8 12.8 12.0-- 5.3 2.3---- 0.0------------
1987-07-24 20.0 24.1 14.2 14.0-- 2.3 2.0---- 0.0------------
1987-07-23 19.6 26.3 12.0 12.5-- 2.7 0.7---- 0.0------------
1987-07-22 18.7 22.9 15.0 14.6-- 4.7 0.7---- 0.0------------
1987-07-21 18.8 25.3 10.5 10.2-- 2.7 1.3---- 21.5------------
1987-07-20 18.1 22.4 14.0 14.6-- 4.7 2.0---- 0.0------------
1987-07-19 18.0 23.1 15.8 17.2-- 8.0 1.7---- 15.4------------
1987-07-18 21.5 26.1 15.8 15.0-- 1.7 2.0---- 0.0------------
1987-07-17 19.9 25.1 16.0 15.4-- 4.3 4.0---- 8.5------------
1987-07-16 18.4 24.1 11.6 10.3-- 1.7 3.3---- 0.0------------
1987-07-15 16.9 22.7 8.4 6.8-- 0.7 2.7---- 0.0------------
1987-07-14 15.8 22.2 7.0 6.0-- 1.3 1.3---- 0.0------------
1987-07-13 15.2 19.5 9.6 9.0-- 3.7 2.7---- 0.0------------
1987-07-12 18.0 23.6 14.0 13.5-- 5.7 2.3---- 0.6------------
1987-07-11 15.3 21.8 9.0 8.0-- 8.0 3.7---- 24.4------------
1987-07-10 14.0 18.7 8.5 8.2-- 1.7 4.7---- 0.0------------
1987-07-09 15.9 19.6 12.6 14.2-- 6.3 2.3---- 5.0------------
1987-07-08 21.4 28.5 12.7 10.6-- 5.0 2.3---- 19.0------------
1987-07-07 20.5 28.0 8.5 8.0-- 0.3 1.3---- 0.0------------
1987-07-06 18.8 25.7 7.0 6.0-- 0.0 0.7---- 0.0------------
1987-07-05 16.6 21.7 10.2 10.0-- 1.0 1.7---- 0.0------------
1987-07-04 17.9 22.7 10.7 9.5-- 2.3 1.3---- 0.0------------
1987-07-03 18.3 23.3 12.0 11.5-- 1.0 2.7---- 0.0------------
1987-07-02 19.7 22.7 13.3 13.0-- 2.3 2.0---- 0.0------------
1987-07-01 23.3 30.0 18.0 16.6-- 4.3 2.3---- 6.0------------
1987-06-30 24.4 30.6 15.8 10.5-- 0.0 2.7---- 0.0------------
1987-06-29 19.9 25.9 11.0 10.5-- 4.7 1.3---- 0.0------------
1987-06-28 17.7 22.2 12.2 11.5-- 7.0 2.7---- 0.0------------
1987-06-27 17.3 21.8 14.8 14.0-- 3.0 1.7---- 0.0------------
1987-06-26 16.8 22.4 10.6 10.0-- 3.3 2.0---- 0.0------------
1987-06-25 13.6 17.5 9.8 9.8-- 6.7 2.3---- 0.0------------
1987-06-24 14.0 19.6 10.0 9.7-- 5.0 3.3---- 16.0------------
1987-06-23 15.3 20.7 9.0 8.2-- 4.7 1.3---- 1.2------------
1987-06-22 14.9 17.5 12.5 12.0-- 8.0 3.0---- 0.0------------
1987-06-21 16.1 23.8 8.6 7.3-- 5.3 1.3---- 0.7------------
1987-06-20 15.7 21.2 7.5 5.5-- 4.3 2.3---- 0.0------------
1987-06-19 12.2 17.5 7.7 7.2-- 3.3 2.7---- 0.0------------
1987-06-18 10.0 15.1 5.6 3.5-- 2.0 3.0---- 0.0------------
1987-06-17 11.6 14.9 9.6 9.4-- 4.3 3.3---- 0.0------------
1987-06-16 11.4 21.2 9.0 9.0-- 8.0 5.3---- 3.8------------
337.1 ms

 

Źródłem pochodzenia danych jest Instytut Meteorologii i Gospodarki Wodnej – Państwowy Instytut Badawczy. Dane Instytutu Meteorologii i Gospodarki Wodnej – Państwowego Instytutu Badawczego zostały przetworzone.

Dane źródłowe można odnaleźć na stronie https://dane.imgw.pl